| time (UTC) | temp C | wind direction | speed KPH | gust KPH | rain 1hr cm | rain 24hr cm | rain mn cm | humidity % | barometer mb |
| 20260508081021 | 16 | 342 | 8.0 | 16.1 | 0.00 | 6.32 | 0.00 | 82 | 1012.3 |
| 20260508080020 | 16 | 350 | 8.0 | 19.3 | 0.00 | 6.32 | 0.00 | 82 | 1012.4 |
| 20260508075020 | 16 | 321 | 6.4 | 19.3 | 0.00 | 6.32 | 0.00 | 84 | 1012.2 |
| 20260508074020 | 15 | 8 | 6.4 | 17.7 | 0.00 | 6.32 | 0.00 | 84 | 1012.2 |
| 20260508073020 | 15 | 322 | 4.8 | 9.7 | 0.00 | 6.32 | 0.00 | 85 | 1012.2 |
| 20260508072020 | 15 | 345 | 9.7 | 22.5 | 0.00 | 6.32 | 0.00 | 85 | 1012.1 |
| 20260508071021 | 15 | 355 | 6.4 | 14.5 | 0.00 | 6.32 | 0.00 | 85 | 1012.2 |
| 20260508070021 | 15 | 340 | 9.7 | 22.5 | 0.00 | 6.32 | 0.00 | 85 | 1011.9 |
| 20260508065021 | 15 | 345 | 8.0 | 16.1 | 0.00 | 6.32 | 0.00 | 85 | 1012.0 |
| 20260508064021 | 15 | 355 | 9.7 | 16.1 | 0.00 | 6.32 | 0.00 | 86 | 1012.0 |
| 20260508063021 | 15 | 304 | 6.4 | 14.5 | 0.00 | 6.32 | 0.00 | 86 | 1012.2 |
| 20260508062021 | 15 | 350 | 8.0 | 14.5 | 0.00 | 6.32 | 0.00 | 85 | 1012.0 |
| 20260508061040 | 15 | 341 | 8.0 | 16.1 | 0.00 | 6.32 | 0.00 | 85 | 1011.6 |
| 20260508055041 | 14 | 347 | 9.7 | 16.1 | 0.00 | 6.32 | 0.00 | 86 | 1011.6 |
| 20260508054021 | 14 | 337 | 8.0 | 12.9 | 0.00 | 6.32 | 0.00 | 86 | 1011.6 |
| 20260508053020 | 14 | 323 | 4.8 | 12.9 | 0.00 | 6.32 | 0.00 | 86 | 1011.4 |
| 20260508052021 | 14 | 343 | 8.0 | 14.5 | 0.00 | 6.32 | 0.00 | 85 | 1011.2 |
| 20260508051020 | 14 | 340 | 8.0 | 14.5 | 0.00 | 6.32 | 0.00 | 85 | 1011.1 |
| 20260508050021 | 14 | 346 | 9.7 | 14.5 | 0.00 | 6.32 | 0.00 | 84 | 1010.9 |
| 20260508045020 | 14 | 341 | 8.0 | 16.1 | 0.00 | 6.32 | 0.00 | 83 | 1010.8 |
| 20260508044040 | 13 | 347 | 8.0 | 12.9 | 0.00 | 6.32 | 0.00 | 83 | 1010.9 |
| 20260508043020 | 14 | 341 | 6.4 | 16.1 | 0.00 | 6.32 | 0.00 | 82 | 1011.0 |
| 20260508042020 | 13 | 338 | 6.4 | 12.9 | 0.00 | 6.32 | 0.00 | 83 | 1010.8 |
| 20260508041021 | 13 | 340 | 6.4 | 12.9 | 0.00 | 6.32 | 0.00 | 82 | 1010.8 |
| 20260508040021 | 14 | 342 | 8.0 | 19.3 | 0.00 | 6.32 | 0.00 | 82 | 1010.8 |
| 20260508035021 | 14 | 343 | 12.9 | 22.5 | 0.00 | 6.32 | 0.00 | 82 | 1011.0 |
| 20260508034021 | 14 | 337 | 9.7 | 17.7 | 0.00 | 6.32 | 0.00 | 81 | 1010.8 |
| 20260508033041 | 13 | 340 | 11.3 | 22.5 | 0.00 | 6.32 | 0.00 | 82 | 1010.9 |
| 20260508032041 | 13 | 341 | 8.0 | 17.7 | 0.00 | 6.32 | 0.00 | 81 | 1010.9 |
| 20260508031041 | 13 | 336 | 8.0 | 16.1 | 0.00 | 6.32 | 0.00 | 82 | 1011.1 |
| 20260508030021 | 13 | 341 | 11.3 | 20.9 | 0.00 | 6.32 | 0.00 | 83 | 1010.9 |
| 20260508025021 | 13 | 346 | 11.3 | 24.1 | 0.00 | 6.32 | 0.00 | 84 | 1010.8 |
| 20260508024021 | 13 | 343 | 11.3 | 17.7 | 0.00 | 6.32 | 0.00 | 85 | 1011.1 |
| 20260508023021 | 12 | 338 | 9.7 | 19.3 | 0.00 | 6.32 | 0.00 | 86 | 1010.9 |
| 20260508022121 | 11 | 307 | 1.6 | 4.8 | 0.00 | 6.32 | 0.00 | 89 | 1011.1 |
| 20260508021021 | 11 | 32 | 1.6 | 4.8 | 0.00 | 6.32 | 0.00 | 90 | 1011.2 |
| 20260508020041 | 11 | 96 | 3.2 | 4.8 | 0.00 | 6.32 | 0.00 | 89 | 1011.2 |
| 20260508015021 | 11 | 114 | 0.0 | 4.8 | 0.00 | 6.32 | 0.00 | 86 | 1011.2 |
| 20260508014020 | 11 | 87 | 1.6 | 4.8 | 0.00 | 6.32 | 0.00 | 87 | 1011.4 |
| 20260508013021 | 11 | 112 | 1.6 | 4.8 | 0.00 | 6.32 | 0.00 | 86 | 1011.5 |
| 20260508012041 | 12 | 63 | 1.6 | 6.4 | 0.00 | 6.32 | 0.00 | 87 | 1011.6 |
| 20260508011041 | 12 | 100 | 3.2 | 4.8 | 0.00 | 6.32 | 0.00 | 83 | 1011.9 |
| 20260508010020 | 12 | 96 | 3.2 | 6.4 | 0.00 | 6.32 | 0.00 | 83 | 1011.9 |
| 20260508005021 | 12 | 99 | 3.2 | 6.4 | 0.00 | 6.32 | 0.00 | 81 | 1011.9 |
| 20260508004020 | 13 | 109 | 3.2 | 4.8 | 0.00 | 6.32 | 0.00 | 78 | 1011.9 |
| 20260508003021 | 14 | 322 | 3.2 | 9.7 | 0.00 | 6.32 | 0.00 | 73 | 1011.9 |
| 20260508002021 | 14 | 344 | 8.0 | 16.1 | 0.00 | 6.32 | 0.00 | 72 | 1011.8 |
| 20260508001020 | 14 | 336 | 8.0 | 16.1 | 0.00 | 6.32 | 0.00 | 71 | 1011.8 |
| 20260508000020 | 13 | 332 | 6.4 | 14.5 | 0.00 | 6.32 | 0.00 | 77 | 1011.9 |
| 20260507235020 | 13 | 321 | 4.8 | 11.3 | 0.00 | 6.32 | 0.00 | 77 | 1012.0 |
| 20260507234020 | 14 | 340 | 9.7 | 22.5 | 0.00 | 6.32 | 0.00 | 77 | 1012.0 |
| 20260507233020 | 13 | 325 | 6.4 | 17.7 | 0.00 | 6.32 | 0.00 | 78 | 1011.9 |
| 20260507232020 | 14 | 321 | 6.4 | 12.9 | 0.00 | 6.32 | 0.00 | 77 | 1012.0 |
| 20260507231021 | 14 | 326 | 6.4 | 14.5 | 0.00 | 6.32 | 0.00 | 80 | 1012.2 |
| 20260507230021 | 14 | 311 | 6.4 | 20.9 | 0.00 | 6.32 | 0.00 | 80 | 1012.2 |
| 20260507225021 | 13 | 334 | 9.7 | 19.3 | 0.00 | 6.32 | 0.00 | 82 | 1012.3 |
| 20260507224021 | 13 | 327 | 9.7 | 16.1 | 0.00 | 6.32 | 0.00 | 86 | 1012.3 |
| 20260507223021 | 13 | 315 | 6.4 | 16.1 | 0.00 | 6.32 | 0.00 | 87 | 1012.2 |
| 20260507222021 | 13 | 328 | 8.0 | 16.1 | 0.00 | 6.32 | 0.00 | 86 | 1012.1 |
| 20260507221021 | 13 | 324 | 6.4 | 16.1 | 0.00 | 6.32 | 0.00 | 86 | 1012.3 |
| 20260507220025 | 13 | 302 | 4.8 | 16.1 | 0.00 | 6.32 | 0.00 | 85 | 1012.5 |
| 20260507215021 | 13 | 330 | 12.9 | 20.9 | 0.00 | 6.32 | 6.32 | 84 | 1012.6 |
| 20260507214022 | 13 | 333 | 9.7 | 22.5 | 0.00 | 6.32 | 6.32 | 86 | 1012.6 |
| 20260507213021 | 13 | 335 | 11.3 | 22.5 | 0.00 | 6.32 | 6.32 | 86 | 1012.7 |
| 20260507212021 | 12 | 324 | 11.3 | 22.5 | 0.03 | 6.32 | 6.32 | 90 | 1012.6 |
| 20260507211041 | 12 | 338 | 11.3 | 20.9 | 0.03 | 6.32 | 6.32 | 91 | 1012.5 |
| 20260507210021 | 13 | 326 | 6.4 | 17.7 | 0.03 | 6.32 | 6.32 | 89 | 1012.4 |
| 20260507205020 | 12 | 332 | 9.7 | 17.7 | 0.03 | 6.32 | 6.32 | 92 | 1012.2 |
| 20260507204021 | 12 | 326 | 8.0 | 16.1 | 0.05 | 6.32 | 6.32 | 95 | 1011.9 |
| 20260507203021 | 12 | 337 | 6.4 | 14.5 | 0.08 | 6.32 | 6.32 | 96 | 1011.8 |
| 20260507202021 | 12 | 310 | 3.2 | 6.4 | 0.10 | 6.30 | 6.30 | 97 | 1011.7 |
| 20260507201041 | 12 | 309 | 1.6 | 6.4 | 0.18 | 6.30 | 6.30 | 97 | 1011.7 |
| 20260507200020 | 12 | 302 | 0.0 | 3.2 | 0.23 | 6.30 | 6.30 | 97 | 1011.6 |
| 20260507195041 | 12 | 184 | 0.0 | 3.2 | 0.33 | 6.30 | 6.30 | 96 | 1011.7 |
| 20260507194020 | 12 | 131 | 1.6 | 4.8 | 0.38 | 6.27 | 6.27 | 97 | 1011.7 |
| 20260507193021 | 12 | 140 | 1.6 | 6.4 | 0.46 | 6.25 | 6.25 | 97 | 1011.8 |
| 20260507192021 | 12 | 137 | 3.2 | 6.4 | 0.51 | 6.20 | 6.20 | 96 | 1011.9 |
| 20260507191020 | 12 | 52 | 0.0 | 4.8 | 0.51 | 6.12 | 6.12 | 96 | 1011.7 |
| 20260507190041 | 12 | 327 | 1.6 | 3.2 | 0.51 | 6.07 | 6.07 | 96 | 1011.6 |
| 20260507185035 | 12 | 109 | 3.2 | 4.8 | 0.48 | 5.97 | 5.97 | 96 | 1011.7 |
| 20260507184021 | 12 | 29 | 0.0 | 3.2 | 0.48 | 5.89 | 5.89 | 96 | 1011.7 |
| 20260507183021 | 12 | 191 | 1.6 | 4.8 | 0.53 | 5.79 | 5.79 | 97 | 1011.6 |
| 20260507182023 | 12 | 129 | 1.6 | 6.4 | 0.81 | 5.69 | 5.69 | 96 | 1011.6 |
| 20260507181021 | 12 | 207 | 3.2 | 6.4 | 1.17 | 5.61 | 5.61 | 96 | 1011.4 |
| 20260507180021 | 12 | 221 | 0.0 | 3.2 | 1.65 | 5.54 | 5.54 | 96 | 1011.2 |
| 20260507175021 | 12 | 78 | 1.6 | 8.0 | 2.16 | 5.49 | 5.49 | 96 | 1011.2 |
| 20260507174021 | 12 | 225 | 3.2 | 6.4 | 2.49 | 5.41 | 5.41 | 95 | 1011.0 |
| 20260507173021 | 12 | 217 | 1.6 | 6.4 | 2.82 | 5.23 | 5.23 | 95 | 1010.8 |
| 20260507172021 | 12 | 322 | 4.8 | 17.7 | 3.15 | 4.88 | 4.88 | 95 | 1010.4 |
| 20260507171021 | 12 | 217 | 4.8 | 8.0 | 3.89 | 4.45 | 4.45 | 95 | 1010.5 |
| 20260507170021 | 12 | 167 | 1.6 | 9.7 | 3.89 | 3.91 | 3.91 | 94 | 1010.8 |
| 20260507165021 | 12 | 194 | 6.4 | 12.9 | 3.33 | 3.33 | 3.33 | 94 | 1010.3 |
| 20260507164025 | 13 | 198 | 4.8 | 11.3 | 2.90 | 2.90 | 2.90 | 93 | 1010.4 |
| 20260507163025 | 12 | 154 | 3.2 | 16.1 | 2.41 | 2.41 | 2.41 | 88 | 1010.0 |
| 20260507162020 | 13 | 330 | 4.8 | 27.4 | 1.73 | 1.73 | 1.73 | 85 | 1010.1 |
| 20260507161020 | 16 | 121 | 4.8 | 9.7 | 0.56 | 0.56 | 0.56 | 87 | 1010.1 |
| 20260507160021 | 17 | 161 | 3.2 | 14.5 | 0.00 | 0.00 | 0.00 | 79 | 1009.4 |
| 20260507155020 | 17 | 188 | 3.2 | 9.7 | 0.00 | 0.00 | 0.00 | 78 | 1009.4 |
| 20260507154021 | 17 | 187 | 4.8 | 11.3 | 0.00 | 0.00 | 0.00 | 78 | 1009.4 |
| 20260507153020 | 18 | 168 | 4.8 | 19.3 | 0.00 | 0.00 | 0.00 | 76 | 1009.4 |
| 20260507152021 | 18 | 213 | 4.8 | 9.7 | 0.00 | 0.00 | 0.00 | 75 | 1009.5 |
| 20260507151041 | 18 | 238 | 4.8 | 9.7 | 0.00 | 0.00 | 0.00 | 74 | 1009.3 |
| 20260507150021 | 18 | 203 | 4.8 | 9.7 | 0.00 | 0.00 | 0.00 | 72 | 1009.4 |
| 20260507145020 | 18 | 202 | 6.4 | 11.3 | 0.00 | 0.00 | 0.00 | 71 | 1009.5 |
| 20260507144020 | 18 | 208 | 4.8 | 9.7 | 0.00 | 0.00 | 0.00 | 69 | 1009.6 |
| 20260507143020 | 19 | 228 | 4.8 | 9.7 | 0.00 | 0.00 | 0.00 | 69 | 1009.7 |
| 20260507142021 | 19 | 240 | 6.4 | 11.3 | 0.00 | 0.00 | 0.00 | 69 | 1009.7 |
| 20260507141020 | 19 | 213 | 6.4 | 9.7 | 0.00 | 0.00 | 0.00 | 70 | 1009.8 |
| 20260507140021 | 19 | 228 | 6.4 | 12.9 | 0.00 | 0.00 | 0.00 | 68 | 1009.9 |
| 20260507135021 | 20 | 220 | 8.0 | 11.3 | 0.00 | 0.00 | 0.00 | 65 | 1010.0 |
| 20260507134021 | 20 | 205 | 6.4 | 9.7 | 0.00 | 0.00 | 0.00 | 63 | 1010.2 |
| 20260507133021 | 21 | 210 | 8.0 | 12.9 | 0.00 | 0.00 | 0.00 | 64 | 1010.1 |
| 20260507132021 | 19 | 238 | 8.0 | 12.9 | 0.00 | 0.00 | 0.00 | 70 | 1010.3 |
| 20260507131026 | 19 | 201 | 6.4 | 16.1 | 0.00 | 0.00 | 0.00 | 71 | 1010.4 |
| 20260507130021 | 20 | 225 | 8.0 | 11.3 | 0.00 | 0.00 | 0.00 | 69 | 1010.5 |
| 20260507125021 | 19 | 222 | 6.4 | 11.3 | 0.00 | 0.00 | 0.00 | 69 | 1010.5 |
| 20260507124021 | 20 | 214 | 6.4 | 11.3 | 0.00 | 0.00 | 0.00 | 68 | 1010.6 |
| 20260507123021 | 20 | 229 | 6.4 | 12.9 | 0.00 | 0.00 | 0.00 | 69 | 1010.6 |
| 20260507122021 | 19 | 254 | 6.4 | 11.3 | 0.00 | 0.00 | 0.00 | 72 | 1010.7 |
| 20260507121021 | 19 | 226 | 4.8 | 12.9 | 0.00 | 0.00 | 0.00 | 72 | 1010.8 |
| 20260507120041 | 20 | 223 | 6.4 | 12.9 | 0.00 | 0.00 | 0.00 | 72 | 1011.0 |
| 20260507115041 | 20 | 240 | 6.4 | 12.9 | 0.00 | 0.00 | 0.00 | 69 | 1011.1 |
| 20260507114021 | 20 | 229 | 8.0 | 12.9 | 0.00 | 0.00 | 0.00 | 68 | 1011.0 |
| 20260507113021 | 20 | 230 | 4.8 | 9.7 | 0.00 | 0.00 | 0.00 | 68 | 1011.2 |
| 20260507112021 | 19 | 214 | 6.4 | 9.7 | 0.00 | 0.00 | 0.00 | 70 | 1011.2 |
| 20260507111021 | 19 | 233 | 4.8 | 9.7 | 0.00 | 0.00 | 0.00 | 69 | 1011.4 |
| 20260507110041 | 19 | 202 | 4.8 | 11.3 | 0.00 | 0.00 | 0.00 | 68 | 1011.4 |
| 20260507105020 | 19 | 253 | 6.4 | 9.7 | 0.00 | 0.00 | 0.00 | 68 | 1011.4 |
| 20260507104021 | 19 | 216 | 4.8 | 9.7 | 0.00 | 0.00 | 0.00 | 68 | 1011.5 |
| 20260507103021 | 19 | 245 | 4.8 | 11.3 | 0.00 | 0.00 | 0.00 | 68 | 1011.5 |
| 20260507102021 | 18 | 173 | 6.4 | 12.9 | 0.00 | 0.00 | 0.00 | 70 | 1011.5 |
| 20260507101021 | 18 | 182 | 4.8 | 9.7 | 0.00 | 0.00 | 0.00 | 71 | 1011.5 |
| 20260507100021 | 18 | 152 | 3.2 | 8.0 | 0.00 | 0.00 | 0.00 | 74 | 1011.6 |
| 20260507095100 | 18 | 246 | 3.2 | 8.0 | 0.00 | 0.00 | 0.00 | 74 | 1011.7 |
| 20260507094021 | 18 | 197 | 3.2 | 9.7 | 0.00 | 0.00 | 0.00 | 76 | 1011.7 |
| 20260507093020 | 18 | 295 | 4.8 | 16.1 | 0.00 | 0.00 | 0.00 | 74 | 1011.8 |
| 20260507092020 | 18 | 197 | 4.8 | 8.0 | 0.00 | 0.00 | 0.00 | 73 | 1011.7 |
| 20260507091020 | 18 | 263 | 3.2 | 9.7 | 0.00 | 0.00 | 0.00 | 76 | 1011.8 |
| 20260507090021 | 17 | 294 | 8.0 | 16.1 | 0.00 | 0.00 | 0.00 | 76 | 1011.8 |
| 20260507085042 | 17 | 330 | 6.4 | 14.5 | 0.00 | 0.00 | 0.00 | 75 | 1011.9 |
| 20260507084041 | 17 | 318 | 6.4 | 16.1 | 0.00 | 0.00 | 0.00 | 77 | 1011.8 |
| 20260507083022 | 17 | 329 | 8.0 | 20.9 | 0.00 | 0.00 | 0.00 | 77 | 1011.7 |
| 20260507082021 | 17 | 313 | 4.8 | 17.7 | 0.00 | 0.00 | 0.00 | 78 | 1011.5 |